createdAt,value
2022-10-03T00:07:06.224Z,90.62
2022-10-03T00:17:15.750Z,91.13
2022-10-03T00:27:30.910Z,91.14
2022-10-03T00:37:37.291Z,90.71
2022-10-03T00:48:07.203Z,90.93
2022-10-03T00:58:31.674Z,91.18
2022-10-03T01:08:56.845Z,91.58
2022-10-03T01:19:07.599Z,91.49
2022-10-03T01:29:33.205Z,90.90
2022-10-03T01:39:43.706Z,91.04
2022-10-03T01:49:52.461Z,92.13
2022-10-03T02:00:01.368Z,91.15
2022-10-03T02:10:13.654Z,91.01
2022-10-03T02:20:33.282Z,90.95
2022-10-03T02:30:52.274Z,91.01
2022-10-03T02:41:18.654Z,90.98
2022-10-03T02:51:53.595Z,90.90
2022-10-03T03:02:25.439Z,90.95
2022-10-03T03:12:59.571Z,91.16
2022-10-03T03:23:18.871Z,91.21
2022-10-03T03:33:29.889Z,91.47
2022-10-03T03:43:55.351Z,91.36
2022-10-03T03:54:26.342Z,91.11
2022-10-03T04:04:46.501Z,91.31
2022-10-03T04:15:12.167Z,91.31
2022-10-03T04:25:33.336Z,91.43
2022-10-03T04:35:57.926Z,91.50
2022-10-03T04:46:19.788Z,91.31
2022-10-03T04:56:45.271Z,91.40
2022-10-03T05:07:02.585Z,91.76
2022-10-03T05:17:17.464Z,92.01
2022-10-03T05:27:33.680Z,91.59
2022-10-03T05:37:58.052Z,91.56
2022-10-03T05:48:15.991Z,91.77
2022-10-03T05:58:55.152Z,91.69
2022-10-03T06:09:29.321Z,91.85
2022-10-03T06:19:46.909Z,91.92
2022-10-03T06:30:12.828Z,92.20
2022-10-03T06:40:47.453Z,92.16
2022-10-03T06:51:21.522Z,91.78
2022-10-03T07:01:51.890Z,91.42
2022-10-03T07:12:14.455Z,91.10
2022-10-03T07:23:13.157Z,90.13
2022-10-03T07:33:47.253Z,88.94
2022-10-03T07:44:17.966Z,88.62
2022-10-03T07:54:45.188Z,87.03
2022-10-03T08:05:12.735Z,87.02
2022-10-03T08:15:27.933Z,85.59
2022-10-03T08:25:44.454Z,84.28
2022-10-03T08:36:14.240Z,83.36
2022-10-03T08:46:40.753Z,81.80
2022-10-03T08:57:17.275Z,78.79
2022-10-03T09:07:40.872Z,77.65
2022-10-03T09:18:27.077Z,77.31
2022-10-03T09:29:07.212Z,72.34
2022-10-03T09:39:45.467Z,69.84
2022-10-03T09:50:30.085Z,71.80
2022-10-03T10:00:51.151Z,70.64
2022-10-03T10:11:21.681Z,65.72
2022-10-03T10:21:54.749Z,68.14
2022-10-03T10:32:39.033Z,63.01
2022-10-03T10:43:18.999Z,63.53
2022-10-03T10:54:12.251Z,62.14
2022-10-03T11:04:42.770Z,61.54
2022-10-03T11:15:36.869Z,53.20
2022-10-03T11:26:18.200Z,50.77
2022-10-03T11:36:57.528Z,49.15
2022-10-03T11:47:19.786Z,54.81
2022-10-03T11:57:34.899Z,47.36
2022-10-03T12:08:02.447Z,41.73
2022-10-03T12:18:20.969Z,28.97
2022-10-03T12:28:27.842Z,46.20
2022-10-03T12:38:50.905Z,52.96
2022-10-03T12:49:00.391Z,55.20
2022-10-03T12:59:15.230Z,52.65
2022-10-03T13:09:42.083Z,53.23
2022-10-03T13:19:55.020Z,55.22
2022-10-03T13:30:06.202Z,58.24
2022-10-03T13:40:17.983Z,59.59
2022-10-03T13:50:26.936Z,57.32
2022-10-03T14:00:36.099Z,60.02
2022-10-03T14:11:03.976Z,60.65
2022-10-03T14:21:42.544Z,60.82
2022-10-03T14:31:57.372Z,62.60
2022-10-03T14:42:22.078Z,63.69
2022-10-03T14:52:37.841Z,64.03
2022-10-03T15:02:47.497Z,64.87
2022-10-03T15:12:57.672Z,66.17
2022-10-03T15:23:02.311Z,67.21
2022-10-03T15:33:15.183Z,68.27
2022-10-03T15:43:31.288Z,69.30
2022-10-03T15:53:37.636Z,70.19
2022-10-03T16:03:47.196Z,70.70
2022-10-03T16:14:03.275Z,71.17
2022-10-03T16:24:08.995Z,71.84
2022-10-03T16:34:17.282Z,72.86
2022-10-03T16:44:22.940Z,74.15
2022-10-03T16:54:29.077Z,75.92
2022-10-03T17:04:36.957Z,76.82
2022-10-03T17:14:44.535Z,77.58
2022-10-03T17:24:52.845Z,78.34
2022-10-03T17:35:01.764Z,79.24
2022-10-03T17:45:30.596Z,80.43
2022-10-03T17:55:38.921Z,81.10
2022-10-03T18:05:46.866Z,81.67
2022-10-03T18:16:19.309Z,82.41
2022-10-03T18:26:28.443Z,83.02
2022-10-03T18:36:38.691Z,82.93
2022-10-03T18:46:42.212Z,85.17
2022-10-03T18:56:48.411Z,83.80
2022-10-03T19:06:54.762Z,84.41
2022-10-03T19:17:15.952Z,85.06
2022-10-03T19:27:20.724Z,84.87
2022-10-03T19:37:41.896Z,85.39
2022-10-03T19:47:56.381Z,84.90
2022-10-03T19:58:03.990Z,85.42
2022-10-03T20:08:21.282Z,85.77
2022-10-03T20:18:30.457Z,85.58
2022-10-03T20:28:52.590Z,86.00
2022-10-03T20:39:12.744Z,86.19
2022-10-03T20:49:26.933Z,86.22
2022-10-03T20:59:42.847Z,86.06
2022-10-03T21:09:50.004Z,86.31
2022-10-03T21:20:00.028Z,86.77
2022-10-03T21:30:06.151Z,86.64
2022-10-03T21:40:22.348Z,86.64
2022-10-03T21:50:29.300Z,86.84
2022-10-03T22:00:55.568Z,87.19
2022-10-03T22:11:09.531Z,87.69
2022-10-03T22:21:24.384Z,87.24
2022-10-03T22:31:33.356Z,87.35
2022-10-03T22:41:38.697Z,87.33
2022-10-03T22:51:43.794Z,87.32
2022-10-03T23:01:50.942Z,87.57
2022-10-03T23:11:56.155Z,87.52
2022-10-03T23:22:01.241Z,87.70
2022-10-03T23:32:05.402Z,87.61
2022-10-03T23:42:15.934Z,87.81
2022-10-03T23:52:25.293Z,87.53
